createdAt,value
2022-10-06T00:01:04.414Z,16.20
2022-10-06T00:03:32.142Z,16.10
2022-10-06T00:06:01.034Z,16.10
2022-10-06T00:08:31.045Z,16.00
2022-10-06T00:10:58.666Z,16.00
2022-10-06T00:13:27.642Z,15.90
2022-10-06T00:15:55.282Z,15.90
2022-10-06T00:18:22.787Z,15.90
2022-10-06T00:21:01.483Z,15.80
2022-10-06T00:23:29.525Z,15.80
2022-10-06T00:25:57.017Z,15.80
2022-10-06T00:28:24.879Z,15.80
2022-10-06T00:30:53.674Z,15.90
2022-10-06T00:33:21.173Z,15.90
2022-10-06T00:35:58.039Z,16.00
2022-10-06T00:38:26.184Z,15.80
2022-10-06T00:40:54.041Z,15.70
2022-10-06T00:43:54.452Z,15.70
2022-10-06T00:46:46.874Z,15.70
2022-10-06T00:49:36.878Z,15.60
2022-10-06T00:52:15.079Z,15.70
2022-10-06T00:54:42.862Z,15.70
2022-10-06T00:57:10.955Z,15.70
2022-10-06T00:59:39.947Z,15.60
2022-10-06T01:02:17.977Z,15.70
2022-10-06T01:04:48.706Z,15.70
2022-10-06T01:07:19.397Z,15.60
2022-10-06T01:09:47.277Z,15.60
2022-10-06T01:12:15.466Z,15.70
2022-10-06T01:14:43.153Z,15.60
2022-10-06T01:17:16.395Z,15.70
2022-10-06T01:19:54.950Z,15.70
2022-10-06T01:22:32.940Z,15.70
2022-10-06T01:25:03.697Z,15.70
2022-10-06T01:27:33.090Z,15.60
2022-10-06T01:30:01.222Z,15.50
2022-10-06T01:32:36.071Z,15.50
2022-10-06T01:35:06.761Z,15.60
2022-10-06T01:37:34.258Z,15.60
2022-10-06T01:40:01.986Z,15.60
2022-10-06T01:42:32.991Z,15.60
2022-10-06T01:45:03.242Z,15.70
2022-10-06T01:47:30.630Z,15.70
2022-10-06T01:49:58.010Z,15.80
2022-10-06T01:52:26.374Z,15.70
2022-10-06T01:54:54.158Z,15.80
2022-10-06T01:57:22.714Z,15.90
2022-10-06T01:59:54.590Z,16.00
2022-10-06T02:02:23.913Z,16.00
2022-10-06T02:04:51.315Z,16.00
2022-10-06T02:07:19.370Z,16.00
2022-10-06T02:09:47.375Z,16.00
2022-10-06T02:12:16.490Z,16.00
2022-10-06T02:14:43.905Z,16.00
2022-10-06T02:17:11.322Z,16.00
2022-10-06T02:19:38.833Z,16.00
2022-10-06T02:22:06.233Z,16.00
2022-10-06T02:24:34.209Z,16.00
2022-10-06T02:27:01.779Z,15.90
2022-10-06T02:29:29.231Z,15.90
2022-10-06T02:31:56.892Z,15.90
2022-10-06T02:34:25.330Z,15.90
2022-10-06T02:36:54.075Z,15.80
2022-10-06T02:39:21.637Z,15.80
2022-10-06T02:41:49.102Z,15.90
2022-10-06T02:44:16.523Z,15.90
2022-10-06T02:46:45.600Z,15.90
2022-10-06T02:49:13.687Z,15.80
2022-10-06T02:51:41.234Z,15.80
2022-10-06T02:54:11.632Z,15.80
2022-10-06T02:56:39.051Z,15.80
2022-10-06T02:59:06.444Z,15.80
2022-10-06T03:01:36.149Z,15.70
2022-10-06T03:04:13.986Z,15.70
2022-10-06T03:06:42.496Z,15.70
2022-10-06T03:09:22.010Z,15.70
2022-10-06T03:11:49.914Z,15.70
2022-10-06T03:14:24.911Z,15.70
2022-10-06T03:16:52.607Z,15.60
2022-10-06T03:19:24.244Z,15.60
2022-10-06T03:21:51.881Z,15.50
2022-10-06T03:24:19.348Z,15.60
2022-10-06T03:26:50.610Z,15.60
2022-10-06T03:29:19.598Z,15.50
2022-10-06T03:31:54.182Z,15.50
2022-10-06T03:34:21.703Z,15.50
2022-10-06T03:36:49.432Z,15.50
2022-10-06T03:39:20.618Z,15.50
2022-10-06T03:41:49.869Z,15.40
2022-10-06T03:44:17.389Z,15.40
2022-10-06T03:46:45.538Z,15.40
2022-10-06T03:49:12.985Z,15.30
2022-10-06T03:51:42.052Z,15.20
2022-10-06T03:54:17.613Z,15.20
2022-10-06T03:56:47.461Z,15.20
2022-10-06T03:59:19.551Z,15.20
2022-10-06T04:01:48.843Z,15.10
2022-10-06T04:04:29.441Z,15.00
2022-10-06T04:07:07.736Z,14.80
2022-10-06T04:09:36.673Z,14.70
2022-10-06T04:12:04.247Z,14.60
2022-10-06T04:14:33.989Z,14.60
2022-10-06T04:17:01.648Z,14.60
2022-10-06T04:19:34.840Z,14.60
2022-10-06T04:22:03.409Z,14.60
2022-10-06T04:24:31.690Z,14.60
2022-10-06T04:27:19.050Z,14.60
2022-10-06T04:30:08.485Z,14.60
2022-10-06T04:32:36.625Z,14.70
2022-10-06T04:35:04.601Z,14.70
2022-10-06T04:37:32.114Z,14.80
2022-10-06T04:40:00.297Z,14.80
2022-10-06T04:42:34.719Z,14.80
2022-10-06T04:45:05.205Z,14.80
2022-10-06T04:47:33.102Z,14.80
2022-10-06T04:50:00.547Z,14.70
2022-10-06T04:52:28.020Z,14.70
2022-10-06T04:54:55.616Z,14.60
2022-10-06T04:57:22.994Z,14.60
2022-10-06T05:00:13.927Z,14.60
2022-10-06T05:02:43.263Z,14.50
2022-10-06T05:05:10.754Z,14.60
2022-10-06T05:07:38.607Z,14.60
2022-10-06T05:10:06.323Z,14.50
2022-10-06T05:12:34.190Z,14.50
2022-10-06T05:15:01.675Z,14.40
2022-10-06T05:17:29.146Z,14.40
2022-10-06T05:19:56.529Z,14.50
2022-10-06T05:22:23.980Z,14.50
2022-10-06T05:24:53.808Z,14.50
2022-10-06T05:27:21.395Z,14.50
2022-10-06T05:29:48.852Z,14.50
2022-10-06T05:32:16.278Z,14.50
2022-10-06T05:34:43.809Z,14.60
2022-10-06T05:37:11.443Z,14.60
2022-10-06T05:39:39.775Z,14.60
2022-10-06T05:42:07.246Z,14.70
2022-10-06T05:44:34.707Z,14.70
2022-10-06T05:47:07.313Z,14.70
2022-10-06T05:49:35.118Z,14.70
2022-10-06T05:52:04.582Z,14.80
2022-10-06T05:54:37.269Z,14.80
2022-10-06T05:57:06.485Z,14.90
2022-10-06T05:59:34.669Z,15.00
2022-10-06T06:02:03.679Z,15.10
2022-10-06T06:04:35.448Z,15.30
2022-10-06T06:07:03.041Z,15.60
2022-10-06T06:09:30.649Z,16.00
2022-10-06T06:12:00.224Z,16.40
2022-10-06T06:15:06.681Z,16.60
2022-10-06T06:17:41.561Z,16.60
2022-10-06T06:20:09.793Z,16.70
2022-10-06T06:22:37.947Z,17.00
2022-10-06T06:25:07.102Z,17.60
2022-10-06T06:27:35.651Z,18.20
2022-10-06T06:30:04.343Z,18.90
2022-10-06T06:32:31.987Z,19.40
2022-10-06T06:34:59.505Z,20.00
2022-10-06T06:37:31.399Z,20.20
2022-10-06T06:39:59.225Z,20.40
2022-10-06T06:42:46.655Z,20.60
2022-10-06T06:45:49.060Z,20.80
2022-10-06T06:48:37.889Z,21.20
2022-10-06T06:51:05.642Z,21.40
2022-10-06T06:53:33.512Z,21.60
2022-10-06T06:56:04.078Z,22.00
2022-10-06T06:58:33.797Z,22.60
2022-10-06T07:01:06.173Z,22.90
2022-10-06T07:03:56.175Z,23.30
2022-10-06T07:06:27.092Z,23.30
2022-10-06T07:08:58.290Z,23.20
2022-10-06T07:11:31.450Z,23.10
2022-10-06T07:14:01.706Z,23.10
2022-10-06T07:16:49.642Z,23.40
2022-10-06T07:19:37.522Z,23.70
2022-10-06T07:22:26.277Z,24.10
2022-10-06T07:25:08.469Z,24.50
2022-10-06T07:27:45.369Z,24.70
2022-10-06T07:30:22.466Z,25.40
2022-10-06T07:32:55.202Z,25.90
2022-10-06T07:35:25.592Z,26.30
2022-10-06T07:37:54.111Z,27.00
2022-10-06T07:40:23.581Z,27.60
2022-10-06T07:42:52.166Z,28.20
2022-10-06T07:45:54.518Z,28.10
2022-10-06T07:48:27.107Z,28.40
2022-10-06T07:51:00.278Z,28.80
2022-10-06T07:53:37.458Z,28.70
2022-10-06T07:56:15.791Z,28.40
2022-10-06T07:58:48.538Z,28.50
2022-10-06T08:01:18.750Z,27.70
2022-10-06T08:03:48.594Z,28.30
2022-10-06T08:06:17.213Z,28.40
2022-10-06T08:08:51.728Z,28.70
2022-10-06T08:11:20.986Z,29.20
2022-10-06T08:13:48.552Z,28.90
2022-10-06T08:16:19.686Z,28.90
2022-10-06T08:18:53.312Z,28.90
2022-10-06T08:21:25.925Z,28.90
2022-10-06T08:23:54.439Z,28.60
2022-10-06T08:26:23.537Z,28.80
2022-10-06T08:28:53.852Z,29.10
2022-10-06T08:31:22.855Z,29.50
2022-10-06T08:33:54.561Z,29.50
2022-10-06T08:36:25.915Z,29.00
2022-10-06T08:38:56.276Z,28.50
2022-10-06T08:41:41.636Z,28.40
2022-10-06T08:44:18.074Z,28.80
2022-10-06T08:46:56.883Z,28.90
2022-10-06T08:49:27.616Z,28.30
2022-10-06T08:51:54.985Z,28.40
2022-10-06T08:54:45.758Z,28.90
2022-10-06T08:57:30.839Z,28.90
2022-10-06T08:59:59.358Z,29.10
2022-10-06T09:02:30.289Z,29.60
2022-10-06T09:05:01.336Z,29.90
2022-10-06T09:08:03.280Z,30.00
2022-10-06T09:10:33.449Z,29.70
2022-10-06T09:13:12.418Z,29.90
2022-10-06T09:15:52.656Z,30.10
2022-10-06T09:19:07.757Z,30.00
2022-10-06T09:21:39.157Z,29.70
2022-10-06T09:24:17.922Z,30.10
2022-10-06T09:26:48.587Z,30.30
2022-10-06T09:29:17.469Z,30.30
2022-10-06T09:31:52.916Z,30.10
2022-10-06T09:34:48.589Z,30.20
2022-10-06T09:37:15.990Z,30.10
2022-10-06T09:39:45.930Z,30.40
2022-10-06T09:42:27.062Z,30.10
2022-10-06T09:44:58.560Z,29.80
2022-10-06T09:47:45.109Z,29.80
2022-10-06T09:50:21.828Z,30.00
2022-10-06T09:52:59.202Z,30.50
2022-10-06T09:55:31.234Z,30.40
2022-10-06T09:57:58.515Z,29.20
2022-10-06T10:00:27.399Z,28.80
2022-10-06T10:03:04.497Z,28.80
2022-10-06T10:06:02.181Z,28.90
2022-10-06T10:08:32.388Z,28.50
2022-10-06T10:11:28.553Z,28.00
2022-10-06T10:13:59.643Z,27.10
2022-10-06T10:16:34.868Z,26.90
2022-10-06T10:19:05.715Z,26.90
2022-10-06T10:21:34.869Z,27.10
2022-10-06T10:24:06.219Z,27.60
2022-10-06T10:26:50.127Z,27.90
2022-10-06T10:29:45.653Z,28.40
2022-10-06T10:32:18.481Z,28.60
2022-10-06T10:35:18.464Z,29.20
2022-10-06T10:38:00.839Z,29.70
2022-10-06T10:40:35.521Z,30.20
2022-10-06T10:43:27.806Z,30.30
2022-10-06T10:46:04.224Z,30.00
2022-10-06T10:48:43.774Z,29.10
2022-10-06T10:51:32.270Z,28.20
2022-10-06T10:54:05.951Z,27.70
2022-10-06T10:56:34.107Z,26.90
2022-10-06T10:59:15.366Z,26.60
2022-10-06T11:01:55.736Z,26.40
2022-10-06T11:04:23.202Z,26.10
2022-10-06T11:07:19.590Z,26.10
2022-10-06T11:09:56.074Z,26.00
2022-10-06T11:12:45.923Z,26.00
2022-10-06T11:15:25.623Z,26.10
2022-10-06T11:17:59.198Z,26.20
2022-10-06T11:20:47.798Z,26.30
2022-10-06T11:23:37.024Z,26.20
2022-10-06T11:26:25.010Z,26.10
2022-10-06T11:29:24.624Z,25.90
2022-10-06T11:32:14.946Z,25.90
2022-10-06T11:34:44.877Z,25.60
2022-10-06T11:37:19.029Z,25.50
2022-10-06T11:40:24.411Z,25.40
2022-10-06T11:43:00.912Z,25.30
2022-10-06T11:45:52.633Z,25.20
2022-10-06T11:48:31.026Z,25.20
2022-10-06T11:51:24.940Z,25.20
2022-10-06T11:53:54.431Z,25.30
2022-10-06T11:56:21.746Z,25.40
2022-10-06T11:59:10.937Z,25.50
2022-10-06T12:01:50.103Z,25.80
2022-10-06T12:04:23.411Z,25.80
2022-10-06T12:06:56.918Z,25.70
2022-10-06T12:09:24.723Z,25.60
2022-10-06T12:11:54.227Z,25.60
2022-10-06T12:17:54.137Z,25.40
2022-10-06T12:20:39.978Z,25.40
2022-10-06T12:23:10.281Z,25.30
2022-10-06T12:25:49.307Z,25.20
2022-10-06T12:28:33.241Z,25.10
2022-10-06T12:31:24.506Z,25.00
2022-10-06T12:33:52.853Z,24.80
2022-10-06T12:36:31.855Z,24.70
2022-10-06T12:39:20.889Z,24.70
2022-10-06T12:42:01.957Z,24.50
2022-10-06T12:44:42.882Z,24.40
2022-10-06T12:47:23.684Z,24.30
2022-10-06T12:50:01.865Z,24.40
2022-10-06T12:52:32.227Z,24.40
2022-10-06T12:55:21.357Z,24.30
2022-10-06T12:57:53.487Z,24.50
2022-10-06T13:00:43.460Z,24.70
2022-10-06T13:03:24.156Z,24.70
2022-10-06T13:06:03.315Z,24.60
2022-10-06T13:08:35.984Z,24.50
2022-10-06T13:11:25.074Z,24.30
2022-10-06T13:13:58.710Z,24.20
2022-10-06T13:16:32.312Z,24.30
2022-10-06T13:19:01.217Z,24.20
2022-10-06T13:21:30.377Z,24.20
2022-10-06T13:23:57.930Z,24.20
2022-10-06T13:26:29.482Z,24.40
2022-10-06T13:28:58.954Z,24.50
2022-10-06T13:31:30.498Z,24.60
2022-10-06T13:34:05.107Z,24.60
2022-10-06T13:36:38.760Z,24.50
2022-10-06T13:39:15.032Z,24.40
2022-10-06T13:41:49.144Z,24.30
2022-10-06T13:44:26.405Z,24.40
2022-10-06T13:46:58.164Z,24.40
2022-10-06T13:49:29.819Z,24.40
2022-10-06T13:52:08.779Z,24.60
2022-10-06T13:54:54.538Z,24.60
2022-10-06T13:57:51.598Z,24.40
2022-10-06T14:00:25.081Z,24.30
2022-10-06T14:03:04.899Z,24.30
2022-10-06T14:05:43.610Z,24.30
2022-10-06T14:08:10.983Z,24.40
2022-10-06T14:10:38.268Z,24.40
2022-10-06T14:13:16.062Z,24.40
2022-10-06T14:15:53.148Z,24.30
2022-10-06T14:18:39.331Z,24.30
2022-10-06T14:21:31.680Z,24.30
2022-10-06T14:24:04.752Z,24.30
2022-10-06T14:26:35.055Z,24.40
2022-10-06T14:29:02.448Z,24.50
2022-10-06T14:31:31.859Z,24.20
2022-10-06T14:33:59.810Z,24.30
2022-10-06T14:36:36.254Z,24.20
2022-10-06T14:39:06.146Z,24.20
2022-10-06T14:41:33.938Z,24.20
2022-10-06T14:44:05.979Z,24.20
2022-10-06T14:46:33.550Z,24.20
2022-10-06T14:49:03.189Z,24.00
2022-10-06T14:51:33.209Z,23.90
2022-10-06T14:54:03.442Z,23.80
2022-10-06T14:56:32.690Z,23.90
2022-10-06T14:59:01.977Z,23.80
2022-10-06T15:01:29.850Z,23.80
2022-10-06T15:04:09.344Z,23.80
2022-10-06T15:06:55.573Z,23.80
2022-10-06T15:09:23.869Z,23.80
2022-10-06T15:11:52.135Z,23.80
2022-10-06T15:14:19.837Z,23.90
2022-10-06T15:16:47.596Z,23.80
2022-10-06T15:19:15.253Z,23.80
2022-10-06T15:21:46.556Z,23.80
2022-10-06T15:24:16.442Z,23.70
2022-10-06T15:27:03.130Z,23.70
2022-10-06T15:29:37.831Z,23.60
2022-10-06T15:32:06.617Z,23.50
2022-10-06T15:34:36.931Z,23.40
2022-10-06T15:37:05.177Z,23.40
2022-10-06T15:39:36.455Z,23.40
2022-10-06T15:42:04.256Z,23.30
2022-10-06T15:44:34.222Z,23.20
2022-10-06T15:47:04.336Z,23.20
2022-10-06T15:49:33.015Z,23.10
2022-10-06T15:52:03.241Z,23.00
2022-10-06T15:54:38.636Z,23.00
2022-10-06T15:57:08.796Z,22.90
2022-10-06T15:59:36.971Z,22.80
2022-10-06T16:02:16.108Z,22.80
2022-10-06T16:04:44.749Z,22.70
2022-10-06T16:07:17.948Z,22.50
2022-10-06T16:09:50.857Z,22.40
2022-10-06T16:12:21.426Z,22.40
2022-10-06T16:14:49.664Z,22.30
2022-10-06T16:17:18.177Z,22.20
2022-10-06T16:19:46.934Z,22.10
2022-10-06T16:22:19.242Z,22.10
2022-10-06T16:24:46.590Z,22.00
2022-10-06T16:27:15.418Z,21.90
2022-10-06T16:29:42.867Z,22.00
2022-10-06T16:32:10.827Z,21.90
2022-10-06T16:34:38.252Z,21.80
2022-10-06T16:37:05.611Z,21.70
2022-10-06T16:39:32.969Z,21.70
2022-10-06T16:42:00.354Z,21.60
2022-10-06T16:44:27.746Z,21.50
2022-10-06T16:46:55.247Z,21.50
2022-10-06T16:49:24.370Z,21.40
2022-10-06T16:51:51.755Z,21.30
2022-10-06T16:54:19.144Z,21.30
2022-10-06T16:56:48.834Z,21.20
2022-10-06T16:59:18.195Z,21.10
2022-10-06T17:01:46.842Z,21.00
2022-10-06T17:04:19.543Z,21.00
2022-10-06T17:06:54.965Z,20.80
2022-10-06T17:09:27.933Z,20.80
2022-10-06T17:12:03.336Z,20.70
2022-10-06T17:14:32.531Z,20.70
2022-10-06T17:17:00.532Z,20.70
2022-10-06T17:19:30.023Z,20.70
2022-10-06T17:21:59.945Z,20.60
2022-10-06T17:24:29.172Z,20.60
2022-10-06T17:26:57.778Z,20.60
2022-10-06T17:29:26.002Z,20.60
2022-10-06T17:31:59.058Z,20.60
2022-10-06T17:34:31.769Z,20.60
2022-10-06T17:37:01.862Z,20.60
2022-10-06T17:39:31.145Z,20.50
2022-10-06T17:41:58.654Z,20.50
2022-10-06T17:44:27.858Z,20.40
2022-10-06T17:46:57.538Z,20.40
2022-10-06T17:49:25.656Z,20.40
2022-10-06T17:51:54.387Z,20.30
2022-10-06T17:54:23.777Z,20.30
2022-10-06T17:56:54.740Z,20.30
2022-10-06T17:59:30.814Z,20.20
2022-10-06T18:02:00.937Z,20.10
2022-10-06T18:04:29.503Z,20.00
2022-10-06T18:06:57.070Z,19.90
2022-10-06T18:09:24.659Z,19.80
2022-10-06T18:11:56.627Z,19.70
2022-10-06T18:14:26.862Z,19.60
2022-10-06T18:16:58.755Z,19.60
2022-10-06T18:19:32.283Z,19.50
2022-10-06T18:22:10.000Z,19.50
2022-10-06T18:24:38.325Z,19.50
2022-10-06T18:27:06.631Z,19.40
2022-10-06T18:29:36.919Z,19.30
2022-10-06T18:37:42.598Z,19.30
2022-10-06T18:40:11.280Z,19.20
2022-10-06T18:42:39.919Z,19.20
2022-10-06T18:45:27.418Z,19.20
2022-10-06T18:48:20.807Z,19.10
2022-10-06T18:51:02.040Z,19.10
2022-10-06T18:53:32.628Z,19.00
2022-10-06T18:56:00.016Z,18.90
2022-10-06T18:58:27.403Z,18.80
2022-10-06T19:00:56.002Z,18.60
2022-10-06T19:03:23.476Z,18.60
2022-10-06T19:05:52.649Z,18.50
2022-10-06T19:08:20.029Z,18.50
2022-10-06T19:11:07.355Z,18.40
2022-10-06T19:13:34.764Z,18.30
2022-10-06T19:16:02.684Z,18.30
2022-10-06T19:18:37.924Z,18.20
2022-10-06T19:21:09.527Z,18.20
2022-10-06T19:23:38.486Z,18.10
2022-10-06T19:26:08.743Z,18.10
2022-10-06T19:28:37.723Z,18.10
2022-10-06T19:31:11.254Z,18.10
2022-10-06T19:33:39.520Z,18.10
2022-10-06T19:36:08.932Z,18.00
2022-10-06T19:38:38.686Z,18.00
2022-10-06T19:41:25.032Z,18.00
2022-10-06T19:43:52.712Z,18.00
2022-10-06T19:46:20.839Z,18.00
2022-10-06T19:48:52.946Z,18.00
2022-10-06T19:51:21.300Z,17.90
2022-10-06T19:53:51.231Z,17.90
2022-10-06T19:56:20.534Z,17.90
2022-10-06T19:58:49.772Z,17.90
2022-10-06T20:01:17.384Z,17.90
2022-10-06T20:03:45.068Z,17.80
2022-10-06T20:06:14.311Z,17.80
2022-10-06T20:08:42.701Z,17.80
2022-10-06T20:11:16.261Z,17.80
2022-10-06T20:13:44.601Z,17.90
2022-10-06T20:16:17.256Z,17.90
2022-10-06T20:18:46.906Z,17.80
2022-10-06T20:21:24.627Z,17.80
2022-10-06T20:23:55.444Z,17.80
2022-10-06T20:26:34.134Z,17.70
2022-10-06T20:29:03.906Z,17.70
2022-10-06T20:31:34.226Z,17.70
2022-10-06T20:34:03.919Z,17.70
2022-10-06T20:36:32.957Z,17.70
2022-10-06T20:39:20.190Z,17.70
2022-10-06T20:41:48.366Z,17.60
2022-10-06T20:44:16.020Z,17.60
2022-10-06T20:46:43.365Z,17.60
2022-10-06T20:49:13.990Z,17.50
2022-10-06T20:51:46.475Z,17.50
2022-10-06T20:54:16.101Z,17.40
2022-10-06T20:56:43.714Z,17.40
2022-10-06T20:59:12.442Z,17.40
2022-10-06T21:01:40.892Z,17.40
2022-10-06T21:04:09.244Z,17.40
2022-10-06T21:06:40.632Z,17.40
2022-10-06T21:09:11.757Z,17.40
2022-10-06T21:11:39.393Z,17.40
2022-10-06T21:14:11.701Z,17.40
2022-10-06T21:16:42.602Z,17.40
2022-10-06T21:19:14.507Z,17.30
2022-10-06T21:21:43.405Z,17.30
2022-10-06T21:24:10.740Z,17.30
2022-10-06T21:26:39.004Z,17.40
2022-10-06T21:29:07.279Z,17.30
2022-10-06T21:31:34.724Z,17.30
2022-10-06T21:34:02.486Z,17.20
2022-10-06T21:36:32.932Z,17.20
2022-10-06T21:39:01.701Z,17.30
2022-10-06T21:41:32.101Z,17.30
2022-10-06T21:44:08.061Z,17.20
2022-10-06T21:46:40.813Z,17.20
2022-10-06T21:49:13.244Z,17.10
2022-10-06T21:51:41.320Z,17.10
2022-10-06T21:54:10.458Z,17.00
2022-10-06T21:56:39.028Z,16.90
2022-10-06T21:59:07.129Z,16.90
2022-10-06T22:01:37.283Z,16.80
2022-10-06T22:04:05.068Z,16.90
2022-10-06T22:06:34.648Z,16.90
2022-10-06T22:09:04.076Z,16.90
2022-10-06T22:11:35.161Z,16.80
2022-10-06T22:14:04.778Z,16.90
2022-10-06T22:16:34.037Z,16.80
2022-10-06T22:19:04.476Z,16.80
2022-10-06T22:21:34.295Z,16.70
2022-10-06T22:24:07.393Z,16.70
2022-10-06T22:26:37.483Z,16.60
2022-10-06T22:29:08.568Z,16.60
2022-10-06T22:31:38.531Z,16.60
2022-10-06T22:34:07.437Z,16.50
2022-10-06T22:36:35.467Z,16.50
2022-10-06T22:39:02.967Z,16.50
2022-10-06T22:41:30.419Z,16.50
2022-10-06T22:43:59.411Z,16.40
2022-10-06T22:46:32.221Z,16.40
2022-10-06T22:48:59.824Z,16.50
2022-10-06T22:51:27.238Z,16.60
2022-10-06T22:54:00.057Z,16.50
2022-10-06T22:56:29.018Z,16.50
2022-10-06T22:58:59.720Z,16.60
2022-10-06T23:01:29.051Z,16.60
2022-10-06T23:03:57.087Z,16.60
2022-10-06T23:06:24.751Z,16.60
2022-10-06T23:08:52.447Z,16.50
2022-10-06T23:11:21.419Z,16.50
2022-10-06T23:13:50.506Z,16.60
2022-10-06T23:16:19.445Z,16.50
2022-10-06T23:18:48.846Z,16.50
2022-10-06T23:21:21.628Z,16.50
2022-10-06T23:23:51.808Z,16.40
2022-10-06T23:26:20.235Z,16.40
2022-10-06T23:28:55.937Z,16.50
2022-10-06T23:31:24.167Z,16.40
2022-10-06T23:33:51.616Z,16.40
2022-10-06T23:36:19.217Z,16.40
2022-10-06T23:38:47.116Z,16.30
2022-10-06T23:41:14.959Z,16.30
2022-10-06T23:43:42.401Z,16.30
2022-10-06T23:46:10.166Z,16.30
2022-10-06T23:48:37.685Z,16.30
2022-10-06T23:51:07.748Z,16.30
2022-10-06T23:53:35.793Z,16.30
2022-10-06T23:56:03.777Z,16.30
2022-10-06T23:58:31.468Z,16.30
